sensor_id;sensor_type;location;lat;lon;timestamp;pressure;altitude;pressure_sealevel;temperature;humidity
48800;BME280;34611;47.964;7.982;2023-07-08T00:04:47;96813.22;;;16.34;59.61
48800;BME280;34611;47.964;7.982;2023-07-08T00:11:47;96800.09;;;16.34;59.54
48800;BME280;34611;47.964;7.982;2023-07-08T00:18:48;96800.91;;;16.35;59.59
48800;BME280;34611;47.964;7.982;2023-07-08T00:25:48;96790.41;;;16.35;59.44
48800;BME280;34611;47.964;7.982;2023-07-08T00:32:49;96786.66;;;16.37;59.55
48800;BME280;34611;47.964;7.982;2023-07-08T00:39:56;96782.38;;;16.36;59.66
48800;BME280;34611;47.964;7.982;2023-07-08T00:53:56;96782.22;;;16.38;59.58
48800;BME280;34611;47.964;7.982;2023-07-08T01:00:57;96780.56;;;16.37;59.68
48800;BME280;34611;47.964;7.982;2023-07-08T01:07:58;96786.66;;;16.37;59.52
48800;BME280;34611;47.964;7.982;2023-07-08T01:15:02;96777.94;;;16.37;59.65
48800;BME280;34611;47.964;7.982;2023-07-08T01:22:03;96787.47;;;16.38;59.67
48800;BME280;34611;47.964;7.982;2023-07-08T01:29:04;96793.53;;;16.38;59.65
48800;BME280;34611;47.964;7.982;2023-07-08T01:36:04;96810.06;;;16.39;59.65
48800;BME280;34611;47.964;7.982;2023-07-08T01:43:05;96814.50;;;16.38;59.69
48800;BME280;34611;47.964;7.982;2023-07-08T01:50:06;96800.44;;;16.39;59.66
48800;BME280;34611;47.964;7.982;2023-07-08T01:57:07;96812.69;;;16.39;59.68
48800;BME280;34611;47.964;7.982;2023-07-08T02:04:07;96810.06;;;16.39;59.70
48800;BME280;34611;47.964;7.982;2023-07-08T02:11:07;96813.53;;;16.39;59.55
48800;BME280;34611;47.964;7.982;2023-07-08T02:18:08;96796.97;;;16.39;59.67
48800;BME280;34611;47.964;7.982;2023-07-08T02:25:09;96788.13;;;16.40;59.58
48800;BME280;34611;47.964;7.982;2023-07-08T02:32:09;96809.09;;;16.40;59.71
48800;BME280;34611;47.964;7.982;2023-07-08T02:39:10;96835.34;;;16.40;59.72
48800;BME280;34611;47.964;7.982;2023-07-08T02:46:11;96878.94;;;16.41;59.68
48800;BME280;34611;47.964;7.982;2023-07-08T02:53:11;96859.94;;;16.39;59.75
48800;BME280;34611;47.964;7.982;2023-07-08T03:00:12;96878.13;;;16.41;59.64
48800;BME280;34611;47.964;7.982;2023-07-08T03:07:13;96890.25;;;16.42;59.80
48800;BME280;34611;47.964;7.982;2023-07-08T03:14:13;96902.56;;;16.41;59.66
48800;BME280;34611;47.964;7.982;2023-07-08T03:21:15;96905.19;;;16.41;59.66
48800;BME280;34611;47.964;7.982;2023-07-08T03:28:16;96930.44;;;16.42;59.69
48800;BME280;34611;47.964;7.982;2023-07-08T03:35:17;96947.97;;;16.42;59.69
48800;BME280;34611;47.964;7.982;2023-07-08T03:42:17;96951.59;;;16.41;59.73
48800;BME280;34611;47.964;7.982;2023-07-08T03:49:19;96969.81;;;16.42;59.79
48800;BME280;34611;47.964;7.982;2023-07-08T03:56:24;96999.47;;;16.43;59.73
48800;BME280;34611;47.964;7.982;2023-07-08T04:03:24;97030.97;;;16.43;59.82
48800;BME280;34611;47.964;7.982;2023-07-08T04:10:24;97036.22;;;16.43;59.78
48800;BME280;34611;47.964;7.982;2023-07-08T04:17:25;97069.50;;;16.42;59.72
48800;BME280;34611;47.964;7.982;2023-07-08T04:24:25;97097.38;;;16.43;59.68
48800;BME280;34611;47.964;7.982;2023-07-08T04:31:25;97069.50;;;16.42;59.88
48800;BME280;34611;47.964;7.982;2023-07-08T04:38:26;97095.56;;;16.44;59.72
48800;BME280;34611;47.964;7.982;2023-07-08T04:45:26;97115.59;;;16.45;59.66
48800;BME280;34611;47.964;7.982;2023-07-08T04:52:27;97107.06;;;16.43;59.86
48800;BME280;34611;47.964;7.982;2023-07-08T04:59:29;97126.25;;;16.43;59.81
48800;BME280;34611;47.964;7.982;2023-07-08T05:06:34;97136.75;;;16.43;59.89
48800;BME280;34611;47.964;7.982;2023-07-08T05:13:34;97144.59;;;16.43;59.93
48800;BME280;34611;47.964;7.982;2023-07-08T05:20:35;97115.59;;;16.45;59.80
48800;BME280;34611;47.964;7.982;2023-07-08T05:27:36;97051.28;;;16.41;59.90
48800;BME280;34611;47.964;7.982;2023-07-08T05:34:37;97053.44;;;16.45;59.77
48800;BME280;34611;47.964;7.982;2023-07-08T05:41:37;97038.69;;;16.44;59.76
48800;BME280;34611;47.964;7.982;2023-07-08T05:48:37;97036.06;;;16.44;59.78
48800;BME280;34611;47.964;7.982;2023-07-08T05:55:37;97036.88;;;16.45;59.79
48800;BME280;34611;47.964;7.982;2023-07-08T06:02:38;97029.81;;;16.45;59.74
48800;BME280;34611;47.964;7.982;2023-07-08T06:09:38;97062.97;;;16.46;59.92
48800;BME280;34611;47.964;7.982;2023-07-08T06:16:38;97020.31;;;16.44;59.89
48800;BME280;34611;47.964;7.982;2023-07-08T06:23:39;97016.69;;;16.45;59.86
48800;BME280;34611;47.964;7.982;2023-07-08T06:30:39;97000.13;;;16.45;59.87
48800;BME280;34611;47.964;7.982;2023-07-08T06:37:39;96980.97;;;16.44;59.79
48800;BME280;34611;47.964;7.982;2023-07-08T06:44:39;96956.34;;;16.45;59.86
48800;BME280;34611;47.964;7.982;2023-07-08T06:51:40;96928.28;;;16.46;59.84
48800;BME280;34611;47.964;7.982;2023-07-08T06:58:40;96930.91;;;16.46;59.86
48800;BME280;34611;47.964;7.982;2023-07-08T07:05:40;96948.47;;;16.45;59.84
48800;BME280;34611;47.964;7.982;2023-07-08T07:12:40;96955.38;;;16.46;59.87
48800;BME280;34611;47.964;7.982;2023-07-08T07:19:41;96962.41;;;16.46;59.86
48800;BME280;34611;47.964;7.982;2023-07-08T07:26:41;96979.81;;;16.47;59.86
48800;BME280;34611;47.964;7.982;2023-07-08T07:33:41;97010.50;;;16.63;59.88
48800;BME280;34611;47.964;7.982;2023-07-08T07:40:42;97020.66;;;16.57;60.00
48800;BME280;34611;47.964;7.982;2023-07-08T07:47:42;97022.31;;;16.50;60.18
48800;BME280;34611;47.964;7.982;2023-07-08T07:54:42;97023.25;;;16.49;60.31
48800;BME280;34611;47.964;7.982;2023-07-08T08:01:43;97040.81;;;16.49;60.26
48800;BME280;34611;47.964;7.982;2023-07-08T08:08:44;97042.63;;;16.48;60.36
48800;BME280;34611;47.964;7.982;2023-07-08T08:15:44;97044.25;;;16.49;60.29
48800;BME280;34611;47.964;7.982;2023-07-08T08:22:45;97053.13;;;16.48;60.35
48800;BME280;34611;47.964;7.982;2023-07-08T08:29:46;97049.50;;;16.49;60.25
48800;BME280;34611;47.964;7.982;2023-07-08T08:36:46;97063.44;;;16.50;60.19
48800;BME280;34611;47.964;7.982;2023-07-08T08:43:47;97068.88;;;16.48;60.29
48800;BME280;34611;47.964;7.982;2023-07-08T08:57:57;97063.44;;;16.50;60.24
48800;BME280;34611;47.964;7.982;2023-07-08T09:05:04;97061.66;;;16.50;60.16
48800;BME280;34611;47.964;7.982;2023-07-08T09:12:06;97055.78;;;16.65;60.78
48800;BME280;34611;47.964;7.982;2023-07-08T09:19:11;97045.91;;;16.50;60.21
48800;BME280;34611;47.964;7.982;2023-07-08T09:26:13;97051.97;;;16.51;60.31
48800;BME280;34611;47.964;7.982;2023-07-08T09:33:16;97056.41;;;16.50;60.23
48800;BME280;34611;47.964;7.982;2023-07-08T09:40:18;97051.16;;;16.50;60.31
48800;BME280;34611;47.964;7.982;2023-07-08T09:47:23;97054.75;;;16.49;60.44
48800;BME280;34611;47.964;7.982;2023-07-08T09:54:24;97046.88;;;16.49;60.38
48800;BME280;34611;47.964;7.982;2023-07-08T10:01:25;97045.91;;;16.50;60.37
48800;BME280;34611;47.964;7.982;2023-07-08T10:08:42;97047.69;;;16.50;60.39
48800;BME280;34611;47.964;7.982;2023-07-08T10:15:45;97052.94;;;16.50;60.32
48800;BME280;34611;47.964;7.982;2023-07-08T10:29:54;97045.06;;;16.50;60.39
48800;BME280;34611;47.964;7.982;2023-07-08T10:37:04;97040.66;;;16.50;60.30
48800;BME280;34611;47.964;7.982;2023-07-08T10:44:07;97040.66;;;16.50;60.31
48800;BME280;34611;47.964;7.982;2023-07-08T11:05:43;97034.56;;;16.50;60.32
48800;BME280;34611;47.964;7.982;2023-07-08T11:12:46;97048.53;;;16.50;60.24
48800;BME280;34611;47.964;7.982;2023-07-08T11:19:48;97050.31;;;16.50;60.35
48800;BME280;34611;47.964;7.982;2023-07-08T11:27:00;97047.69;;;16.50;60.35
48800;BME280;34611;47.964;7.982;2023-07-08T11:34:04;97040.66;;;16.50;60.35
48800;BME280;34611;47.964;7.982;2023-07-08T11:41:11;97044.91;;;16.51;60.30
48800;BME280;34611;47.964;7.982;2023-07-08T11:48:13;97035.41;;;16.50;60.46
48800;BME280;34611;47.964;7.982;2023-07-08T11:55:20;97023.94;;;16.51;60.38
48800;BME280;34611;47.964;7.982;2023-07-08T12:02:21;97029.16;;;16.51;60.38
48800;BME280;34611;47.964;7.982;2023-07-08T12:09:27;97026.56;;;16.51;60.41
48800;BME280;34611;47.964;7.982;2023-07-08T12:16:28;97028.34;;;16.51;60.57
48800;BME280;34611;47.964;7.982;2023-07-08T12:23:29;97031.78;;;16.51;60.42
48800;BME280;34611;47.964;7.982;2023-07-08T12:30:30;97012.63;;;16.51;60.26
48800;BME280;34611;47.964;7.982;2023-07-08T12:37:31;97010.81;;;16.51;60.50
48800;BME280;34611;47.964;7.982;2023-07-08T12:44:31;97010.81;;;16.51;60.47
48800;BME280;34611;47.964;7.982;2023-07-08T12:51:31;97010.81;;;16.51;60.44
48800;BME280;34611;47.964;7.982;2023-07-08T12:58:33;97000.16;;;16.53;60.46
48800;BME280;34611;47.964;7.982;2023-07-08T13:05:34;97007.22;;;16.69;60.84
48800;BME280;34611;47.964;7.982;2023-07-08T13:12:36;96996.56;;;17.19;55.50
48800;BME280;34611;47.964;7.982;2023-07-08T13:19:38;96993.22;;;17.42;52.99
48800;BME280;34611;47.964;7.982;2023-07-08T13:26:39;96989.44;;;17.53;52.20
48800;BME280;34611;47.964;7.982;2023-07-08T13:33:44;96986.63;;;17.54;51.44
48800;BME280;34611;47.964;7.982;2023-07-08T13:40:45;96989.41;;;17.61;50.54
48800;BME280;34611;47.964;7.982;2023-07-08T13:47:56;96980.66;;;17.69;49.86
48800;BME280;34611;47.964;7.982;2023-07-08T13:54:59;96977.19;;;17.68;49.56
48800;BME280;34611;47.964;7.982;2023-07-08T14:01:59;96975.72;;;17.74;49.30
48800;BME280;34611;47.964;7.982;2023-07-08T14:09:03;96969.94;;;17.78;48.84
48800;BME280;34611;47.964;7.982;2023-07-08T14:16:25;96964.34;;;17.82;48.55
48800;BME280;34611;47.964;7.982;2023-07-08T14:23:27;96958.13;;;17.83;48.28
48800;BME280;34611;47.964;7.982;2023-07-08T14:30:27;96954.31;;;17.85;47.83
48800;BME280;34611;47.964;7.982;2023-07-08T14:37:27;96962.84;;;17.87;47.74
48800;BME280;34611;47.964;7.982;2023-07-08T14:44:31;96965.97;;;17.91;47.23
48800;BME280;34611;47.964;7.982;2023-07-08T14:51:33;96963.50;;;17.89;47.18
48800;BME280;34611;47.964;7.982;2023-07-08T14:58:33;96965.28;;;17.97;46.72
48800;BME280;34611;47.964;7.982;2023-07-08T15:05:34;96971.66;;;17.63;49.64
48800;BME280;34611;47.964;7.982;2023-07-08T15:12:34;96981.63;;;17.04;51.66
48800;BME280;34611;47.964;7.982;2023-07-08T15:19:34;96981.31;;;16.98;52.70
48800;BME280;34611;47.964;7.982;2023-07-08T15:26:35;96983.59;;;16.93;53.29
48800;BME280;34611;47.964;7.982;2023-07-08T15:33:35;96978.34;;;16.93;53.72
48800;BME280;34611;47.964;7.982;2023-07-08T15:40:35;96984.91;;;16.89;54.14
48800;BME280;34611;47.964;7.982;2023-07-08T15:47:38;96984.13;;;16.89;54.43
48800;BME280;34611;47.964;7.982;2023-07-08T15:54:38;96976.56;;;16.86;54.61
48800;BME280;34611;47.964;7.982;2023-07-08T16:01:39;96975.91;;;16.84;54.82
48800;BME280;34611;47.964;7.982;2023-07-08T16:08:40;96969.66;;;16.85;55.11
48800;BME280;34611;47.964;7.982;2023-07-08T16:15:40;96969.81;;;16.83;55.19
48800;BME280;34611;47.964;7.982;2023-07-08T16:22:42;96974.09;;;16.84;55.36
48800;BME280;34611;47.964;7.982;2023-07-08T16:29:42;96970.00;;;16.82;55.53
48800;BME280;34611;47.964;7.982;2023-07-08T16:36:43;96972.63;;;16.82;55.54
48800;BME280;34611;47.964;7.982;2023-07-08T16:43:43;96979.84;;;16.79;55.81
48800;BME280;34611;47.964;7.982;2023-07-08T16:50:44;96976.38;;;16.79;55.82
48800;BME280;34611;47.964;7.982;2023-07-08T16:57:44;96972.75;;;16.80;56.04
48800;BME280;34611;47.964;7.982;2023-07-08T17:04:45;96972.75;;;16.80;56.01
48800;BME280;34611;47.964;7.982;2023-07-08T17:11:45;96972.94;;;16.78;56.20
48800;BME280;34611;47.964;7.982;2023-07-08T17:18:53;96980.00;;;16.78;56.36
48800;BME280;34611;47.964;7.982;2023-07-08T17:25:54;96974.88;;;16.76;56.39
48800;BME280;34611;47.964;7.982;2023-07-08T17:32:54;96972.25;;;16.76;56.41
48800;BME280;34611;47.964;7.982;2023-07-08T17:39:55;96972.09;;;16.78;56.47
48800;BME280;34611;47.964;7.982;2023-07-08T17:46:55;96973.25;;;16.75;56.51
48800;BME280;34611;47.964;7.982;2023-07-08T17:53:57;96973.25;;;16.75;56.71
48800;BME280;34611;47.964;7.982;2023-07-08T18:00:57;96981.94;;;16.76;56.74
48800;BME280;34611;47.964;7.982;2023-07-08T18:07:57;96987.19;;;16.76;56.70
48800;BME280;34611;47.964;7.982;2023-07-08T18:14:58;96993.59;;;16.73;56.82
48800;BME280;34611;47.964;7.982;2023-07-08T18:21:58;96998.06;;;16.73;56.90
48800;BME280;34611;47.964;7.982;2023-07-08T18:29:02;97001.28;;;16.75;56.90
48800;BME280;34611;47.964;7.982;2023-07-08T18:36:02;96997.06;;;16.74;56.96
48800;BME280;34611;47.964;7.982;2023-07-08T18:43:06;97021.69;;;16.73;57.00
48800;BME280;34611;47.964;7.982;2023-07-08T18:50:07;97018.19;;;16.72;57.14
48800;BME280;34611;47.964;7.982;2023-07-08T18:57:09;97032.16;;;16.73;57.12
48800;BME280;34611;47.964;7.982;2023-07-08T19:04:17;97038.41;;;16.72;57.22
48800;BME280;34611;47.964;7.982;2023-07-08T19:18:19;97054.97;;;16.72;57.18
48800;BME280;34611;47.964;7.982;2023-07-08T19:25:21;97054.13;;;16.72;57.23
48800;BME280;34611;47.964;7.982;2023-07-08T19:32:22;97068.94;;;16.73;57.24
48800;BME280;34611;47.964;7.982;2023-07-08T19:39:22;97076.81;;;16.73;57.34
48800;BME280;34611;47.964;7.982;2023-07-08T19:46:23;97089.09;;;16.72;57.42
48800;BME280;34611;47.964;7.982;2023-07-08T19:53:23;97095.31;;;16.71;57.28
48800;BME280;34611;47.964;7.982;2023-07-08T20:07:24;97108.47;;;16.71;57.42
48800;BME280;34611;47.964;7.982;2023-07-08T20:14:24;97108.31;;;16.73;57.42
48800;BME280;34611;47.964;7.982;2023-07-08T20:21:24;97113.56;;;16.73;57.50
48800;BME280;34611;47.964;7.982;2023-07-08T20:28:26;97125.03;;;16.72;57.57
48800;BME280;34611;47.964;7.982;2023-07-08T20:35:27;97127.66;;;16.72;57.61
48800;BME280;34611;47.964;7.982;2023-07-08T20:42:28;97128.47;;;16.72;57.59
48800;BME280;34611;47.964;7.982;2023-07-08T20:49:28;97132.91;;;16.72;57.77
48800;BME280;34611;47.964;7.982;2023-07-08T20:56:29;97143.41;;;16.72;57.75
48800;BME280;34611;47.964;7.982;2023-07-08T21:03:30;97158.19;;;16.73;57.66
48800;BME280;34611;47.964;7.982;2023-07-08T21:10:31;97164.41;;;16.72;57.72
48800;BME280;34611;47.964;7.982;2023-07-08T21:17:31;97161.63;;;16.73;57.76
48800;BME280;34611;47.964;7.982;2023-07-08T21:24:31;97152.09;;;16.72;57.72
48800;BME280;34611;47.964;7.982;2023-07-08T21:31:31;97159.00;;;16.73;57.80
48800;BME280;34611;47.964;7.982;2023-07-08T21:38:32;97162.44;;;16.74;57.66
48800;BME280;34611;47.964;7.982;2023-07-08T21:45:33;97158.19;;;16.73;57.72
48800;BME280;34611;47.964;7.982;2023-07-08T21:52:33;97166.06;;;16.73;57.69
48800;BME280;34611;47.964;7.982;2023-07-08T21:59:34;97158.19;;;16.73;57.86
48800;BME280;34611;47.964;7.982;2023-07-08T22:06:34;97171.31;;;16.73;57.83
48800;BME280;34611;47.964;7.982;2023-07-08T22:13:36;97177.19;;;16.75;57.73
48800;BME280;34611;47.964;7.982;2023-07-08T22:20:38;97175.56;;;16.74;57.91
48800;BME280;34611;47.964;7.982;2023-07-08T22:27:38;97171.13;;;16.74;57.81
48800;BME280;34611;47.964;7.982;2023-07-08T22:34:38;97170.47;;;16.72;57.98
48800;BME280;34611;47.964;7.982;2023-07-08T22:41:49;97167.69;;;16.74;57.88
48800;BME280;34611;47.964;7.982;2023-07-08T22:48:50;97160.81;;;16.73;57.85
48800;BME280;34611;47.964;7.982;2023-07-08T22:55:57;97169.31;;;16.75;57.95
48800;BME280;34611;47.964;7.982;2023-07-08T23:02:57;97179.81;;;16.75;57.94
48800;BME280;34611;47.964;7.982;2023-07-08T23:09:57;97178.84;;;16.76;57.96
48800;BME280;34611;47.964;7.982;2023-07-08T23:16:57;97172.78;;;16.75;57.88
48800;BME280;34611;47.964;7.982;2023-07-08T23:23:58;97174.56;;;16.75;57.95
48800;BME280;34611;47.964;7.982;2023-07-08T23:30:58;97181.47;;;16.76;58.01
48800;BME280;34611;47.964;7.982;2023-07-08T23:37:58;97179.81;;;16.75;57.95
48800;BME280;34611;47.964;7.982;2023-07-08T23:44:59;97173.75;;;16.74;58.05
48800;BME280;34611;47.964;7.982;2023-07-08T23:52:00;97182.44;;;16.75;57.91
48800;BME280;34611;47.964;7.982;2023-07-08T23:59:01;97176.22;;;16.76;57.95
